CRM2 weather

Riding Mountain Airport
Riding Mountain, Manitoba, Canada

Public forecast

Using degrees Celsius for public forecast. Weather courtesy of forecast.io.

Closest aviation weather report (METAR) to Riding Mountain Airport

Closest report is Dauphin Barker Airport, 41.1 nm (76.1 km) NW. Retrieved 2019/11/17 18:00 UTC (52 minutes ago):

CYDN 171800Z AUTO 21006KT 9SM OVC010 M02/M04 A2986 RMK SLP131

Closest aviation forecast (TAF) to Riding Mountain Airport

Closest forecast is Dauphin Barker Airport, 41.1 nm (76.1 km) NW. Retrieved 2019/11/17 18:42 UTC (10 minutes ago):

TAF CYDN 171740Z 1718/1806 23008KT P6SM OVC010 TEMPO 1718/1722 4SM BR OVC006 PROB30 1719/1722 OVC003 FM172200 20008KT P6SM SCT008 BKN120 TEMPO 1722/1802 BKN008 BKN120 FM180200 16008KT P6SM FEW008 BKN080 TEMPO 1802/1806 P6SM -RA FEW008 OVC060 RMK FCST BASED ON AUTO OBS NXT FCST BY 180000Z